Time;durP1;ratioP1;P1;durP2;ratioP2;P2;SDS_P1;SDS_P2;PMS_P1;PMS_P2;Temp;Humidity;BMP_temperature;BMP_pressure;BME280_temperature;BME280_humidity;BME280_pressure;Samples;Min_cycle;Max_cycle;Signal;HPM_P1;HPM_P2
2024/01/06 00:01:17;;;;;;;7.80;5.60;;;;;;;24.55;34.92;98299.16;4981853;28;20034;-45
2024/01/06 00:03:42;;;;;;;7.95;5.60;;;;;;;24.55;34.83;98304.66;4988206;28;20377;-49
2024/01/06 00:06:08;;;;;;;7.32;5.50;;;;;;;24.55;34.81;98310.94;4983091;28;20057;-45
2024/01/06 00:08:33;;;;;;;6.85;5.05;;;;;;;24.54;35.13;98309.44;4981731;28;20074;-44
2024/01/06 00:10:58;;;;;;;7.70;5.53;;;;;;;24.55;34.83;98304.66;4984362;28;20026;-46
2024/01/06 00:13:24;;;;;;;7.28;5.30;;;;;;;24.54;34.83;98303.94;4982237;28;20072;-46
2024/01/06 00:15:49;;;;;;;7.40;5.00;;;;;;;24.55;34.90;98304.66;4978422;28;20023;-45
2024/01/06 00:18:14;;;;;;;7.85;5.60;;;;;;;24.57;34.80;98307.66;4986253;28;20026;-45
2024/01/06 00:20:40;;;;;;;8.23;5.28;;;;;;;24.57;34.72;98307.66;4986159;28;20029;-45
2024/01/06 00:23:05;;;;;;;6.68;4.88;;;;;;;24.54;34.77;98303.94;4989988;28;20022;-46
2024/01/06 00:25:30;;;;;;;7.55;5.43;;;;;;;24.53;34.98;98299.69;4981323;28;20033;-45
2024/01/06 00:27:56;;;;;;;7.60;5.30;;;;;;;24.52;34.87;98297.44;4988888;28;20035;-45
2024/01/06 00:30:21;;;;;;;6.80;4.85;;;;;;;24.53;34.96;98301.69;4984141;28;20035;-45
2024/01/06 00:32:46;;;;;;;7.13;4.93;;;;;;;24.51;35.06;98299.44;4983460;28;20026;-45
2024/01/06 00:35:12;;;;;;;7.18;4.85;;;;;;;24.52;34.82;98300.19;4982626;28;20490;-47
2024/01/06 00:37:37;;;;;;;6.70;4.65;;;;;;;24.51;34.91;98304.22;4980636;28;20026;-44
2024/01/06 00:40:04;;;;;;;6.93;4.85;;;;;;;24.49;34.87;98304.75;4983096;28;20026;-47
2024/01/06 00:42:29;;;;;;;6.50;4.43;;;;;;;24.49;34.81;98304.75;4982809;28;20034;-46
2024/01/06 00:44:54;;;;;;;6.90;4.40;;;;;;;24.50;34.88;98302.72;4986772;28;20108;-46
2024/01/06 00:47:22;;;;;;;6.72;4.45;;;;;;;24.52;34.88;98308.47;4980961;28;20042;-46
2024/01/06 00:49:47;;;;;;;;;;;;;;;24.50;34.83;98314.50;4986945;28;20030;-46
2024/01/06 00:52:12;;;;;;;6.57;4.40;;;;;;;24.49;34.94;98315.03;4981172;28;20550;-47
2024/01/06 00:54:38;;;;;;;6.07;4.13;;;;;;;24.50;34.91;98320.03;4987838;28;20380;-45
2024/01/06 00:57:03;;;;;;;6.65;4.03;;;;;;;24.50;34.95;98320.03;4979627;28;20026;-45
2024/01/06 00:59:29;;;;;;;6.70;4.30;;;;;;;24.51;34.83;98331.81;4979740;28;20092;-45
2024/01/06 01:01:54;;;;;;;7.45;4.43;;;;;;;24.52;34.84;98333.28;4983005;28;20030;-46
2024/01/06 01:04:19;;;;;;;6.00;4.10;;;;;;;24.53;34.77;98340.31;4984774;28;20035;-45
2024/01/06 01:06:45;;;;;;;6.20;4.00;;;;;;;24.55;34.67;98333.00;4983546;28;20099;-45
2024/01/06 01:09:13;;;;;;;5.93;3.85;;;;;;;24.52;34.89;98344.34;4981022;28;20022;-44
2024/01/06 01:11:38;;;;;;;6.38;3.85;;;;;;;24.51;34.75;98345.59;4984653;28;20038;-45
2024/01/06 01:14:04;;;;;;;6.00;4.03;;;;;;;24.49;34.93;98348.88;4981012;28;20037;-47
2024/01/06 01:16:29;;;;;;;5.93;3.50;;;;;;;24.49;34.91;98342.59;4985295;28;20471;-46
2024/01/06 01:18:54;;;;;;;5.95;3.92;;;;;;;24.51;34.87;98342.84;4980435;28;20018;-47
2024/01/06 01:21:20;;;;;;;5.68;3.80;;;;;;;24.52;34.82;98355.38;4982447;28;20046;-46
2024/01/06 01:23:45;;;;;;;5.72;3.70;;;;;;;24.49;34.87;98359.16;4981932;28;20073;-46
2024/01/06 01:26:11;;;;;;;5.47;3.63;;;;;;;24.50;34.66;98358.63;4980789;28;20018;-46
2024/01/06 01:28:36;;;;;;;6.43;3.58;;;;;;;24.49;34.50;98368.19;4982208;28;20084;-47
2024/01/06 01:31:01;;;;;;;5.50;3.67;;;;;;;24.49;34.80;98367.44;4980219;28;20029;-45
2024/01/06 01:33:27;;;;;;;5.72;3.50;;;;;;;24.50;34.93;98377.94;4983921;28;20026;-46
2024/01/06 01:35:52;;;;;;;5.60;3.33;;;;;;;24.51;34.80;98379.44;4982667;28;20023;-46
2024/01/06 01:38:17;;;;;;;5.88;3.65;;;;;;;24.51;34.80;98381.44;4979678;28;20079;-45
2024/01/06 01:40:43;;;;;;;5.75;3.50;;;;;;;24.49;34.76;98386.75;4980709;28;20023;-44
2024/01/06 01:43:18;;;;;;;6.35;3.65;;;;;;;24.48;34.87;98385.25;4983190;28;20500;-49
2024/01/06 01:45:43;;;;;;;5.65;3.30;;;;;;;24.46;34.93;98390.53;4984153;28;20019;-46
2024/01/06 01:48:09;;;;;;;5.30;3.20;;;;;;;24.48;34.75;98393.53;4980401;28;20033;-46
2024/01/06 01:50:34;;;;;;;5.82;3.40;;;;;;;24.47;34.82;98392.03;5009109;28;20042;-46
2024/01/06 01:52:59;;;;;;;5.35;3.30;;;;;;;24.46;34.76;98390.53;4985915;28;20084;-48
2024/01/06 01:55:25;;;;;;;4.88;2.92;;;;;;;24.47;34.90;98400.31;4994475;28;20023;-49
2024/01/06 01:57:50;;;;;;;5.57;3.00;;;;;;;24.46;34.82;98396.78;4985110;28;20119;-46
2024/01/06 02:00:15;;;;;;;5.20;2.95;;;;;;;24.48;34.80;98394.28;4981700;28;20042;-46
2024/01/06 02:02:41;;;;;;;5.07;3.20;;;;;;;24.48;34.96;98399.03;5011994;28;20117;-46
2024/01/06 02:05:06;;;;;;;5.50;3.30;;;;;;;24.51;34.55;98403.53;4984524;28;20385;-44
2024/01/06 02:07:31;;;;;;;5.47;3.17;;;;;;;24.49;34.66;98406.78;4984873;28;20038;-47
2024/01/06 02:09:57;;;;;;;5.07;2.80;;;;;;;24.49;34.64;98408.81;4982500;28;20023;-46
2024/01/06 02:12:22;;;;;;;5.70;3.30;;;;;;;24.48;34.82;98402.53;4985516;28;20045;-44
2024/01/06 02:14:47;;;;;;;5.03;2.80;;;;;;;24.48;34.70;98396.28;4985422;28;20034;-44
2024/01/06 02:17:13;;;;;;;5.20;3.08;;;;;;;24.48;34.68;98405.31;4985008;28;20543;-46
2024/01/06 02:19:38;;;;;;;5.00;3.05;;;;;;;24.48;34.67;98399.03;4985056;28;20030;-45
2024/01/06 02:22:03;;;;;;;5.10;3.17;;;;;;;24.46;34.72;98402.31;5013754;28;20037;-45
2024/01/06 02:24:29;;;;;;;5.10;2.88;;;;;;;24.45;34.78;98408.34;4986017;28;20088;-45
2024/01/06 02:26:54;;;;;;;4.93;2.67;;;;;;;24.43;34.88;98410.88;4988086;28;20024;-45
2024/01/06 02:29:20;;;;;;;4.85;2.60;;;;;;;24.43;34.90;98405.34;4985196;28;20030;-46
2024/01/06 02:31:45;;;;;;;4.72;2.70;;;;;;;24.43;34.85;98408.13;4983476;28;20080;-45
2024/01/06 02:34:10;;;;;;;4.50;2.60;;;;;;;24.45;34.90;98411.84;4983253;28;20398;-46
2024/01/06 02:36:36;;;;;;;5.22;2.90;;;;;;;24.43;34.64;98410.88;4984102;28;20027;-47
2024/01/06 02:39:01;;;;;;;4.60;2.38;;;;;;;24.44;34.88;98409.63;4990629;28;20022;-46
2024/01/06 02:41:26;;;;;;;4.70;2.67;;;;;;;24.43;34.96;98413.63;4983305;28;20025;-45
2024/01/06 02:43:54;;;;;;;4.60;2.40;;;;;;;24.43;34.72;98413.63;4987502;28;20018;-45
2024/01/06 02:46:19;;;;;;;4.82;2.45;;;;;;;24.43;34.89;98430.94;4984853;28;20041;-45
2024/01/06 02:48:44;;;;;;;4.80;2.53;;;;;;;24.46;34.81;98437.44;4985502;28;20034;-46
2024/01/06 02:51:12;;;;;;;4.90;2.50;;;;;;;24.43;34.89;98435.69;4984578;28;20053;-45
2024/01/06 02:53:37;;;;;;;5.05;2.60;;;;;;;24.44;34.74;98437.94;4984410;28;20026;-44
2024/01/06 02:56:02;;;;;;;4.55;2.50;;;;;;;24.44;34.76;98428.91;4985060;28;20061;-46
2024/01/06 02:58:28;;;;;;;4.40;2.15;;;;;;;24.45;34.78;98433.16;4980550;28;20027;-45
2024/01/06 03:00:53;;;;;;;4.55;2.25;;;;;;;24.44;34.78;98432.44;4987008;28;20778;-45
2024/01/06 03:03:18;;;;;;;4.50;2.40;;;;;;;24.44;34.72;98426.16;4991888;28;20030;-45
2024/01/06 03:05:44;;;;;;;4.75;2.58;;;;;;;24.45;34.74;98427.66;4984150;28;20018;-47
2024/01/06 03:08:09;;;;;;;4.45;2.30;;;;;;;24.43;34.76;98433.69;4992008;28;20034;-46
2024/01/06 03:10:36;;;;;;;4.28;2.28;;;;;;;24.43;34.86;98427.44;4987291;28;20034;-45
2024/01/06 03:13:01;;;;;;;4.55;2.40;;;;;;;24.45;34.70;98430.41;4986564;28;20013;-45
2024/01/06 03:15:26;;;;;;;4.32;2.20;;;;;;;24.43;34.82;98421.91;4984844;28;20103;-47
2024/01/06 03:17:52;;;;;;;4.47;2.25;;;;;;;24.42;34.82;98429.44;4985638;28;20026;-45
2024/01/06 03:20:17;;;;;;;4.07;2.00;;;;;;;24.41;34.93;98427.19;4985761;28;20555;-46
2024/01/06 03:22:43;;;;;;;4.15;2.00;;;;;;;24.42;34.90;98426.69;4981161;28;20410;-46
2024/01/06 03:25:08;;;;;;;4.78;2.25;;;;;;;24.42;34.93;98434.19;4986029;28;20029;-46
2024/01/06 03:27:33;;;;;;;4.18;2.10;;;;;;;24.36;34.72;98421.25;4982743;28;20027;-49
2024/01/06 03:29:59;;;;;;;4.20;2.10;;;;;;;24.38;34.83;98421.44;4979160;28;20355;-46
2024/01/06 03:32:24;;;;;;;3.90;1.90;;;;;;;24.35;34.99;98425.25;4981515;28;20035;-45
2024/01/06 03:34:49;;;;;;;3.65;1.75;;;;;;;24.38;34.93;98434.50;4990960;28;20651;-47
2024/01/06 03:37:15;;;;;;;4.07;2.10;;;;;;;24.35;34.95;98433.53;4981156;28;20027;-45
2024/01/06 03:39:40;;;;;;;4.28;2.10;;;;;;;24.34;34.92;98421.00;4990511;28;20019;-47
2024/01/06 03:42:06;;;;;;;4.65;2.20;;;;;;;24.38;34.99;98423.47;4980911;28;20445;-49
2024/01/06 03:44:33;;;;;;;4.07;2.03;;;;;;;24.39;34.93;98416.69;4984381;28;20076;-45
2024/01/06 03:46:59;;;;;;;4.32;2.00;;;;;;;24.36;34.98;98421.25;4986346;28;20029;-48
2024/01/06 03:49:24;;;;;;;4.50;2.10;;;;;;;24.41;34.88;98422.44;4987297;28;20041;-46
2024/01/06 03:51:49;;;;;;;4.10;2.00;;;;;;;24.36;35.05;98415.72;4980719;28;20029;-45
2024/01/06 03:54:15;;;;;;;4.43;2.10;;;;;;;24.37;35.15;98417.22;4982292;28;20041;-47
2024/01/06 03:56:40;;;;;;;3.88;1.80;;;;;;;24.38;35.22;98415.94;4982867;28;20027;-45
2024/01/06 03:59:05;;;;;;;4.20;1.90;;;;;;;24.37;35.13;98424.75;4981237;28;20774;-46
2024/01/06 04:01:34;;;;;;;4.10;2.00;;;;;;;24.40;35.14;98420.94;4982172;28;20031;-46
2024/01/06 04:04:00;;;;;;;4.13;2.00;;;;;;;24.38;35.35;98429.72;4981016;28;20026;-45
2024/01/06 04:06:25;;;;;;;3.88;1.98;;;;;;;24.42;35.07;98434.94;4982726;28;20041;-46
2024/01/06 04:08:53;;;;;;;4.35;1.90;;;;;;;24.50;34.91;98435.13;4981948;28;20026;-45
2024/01/06 04:11:18;;;;;;;;;;;;;;;24.48;34.60;98435.66;4985142;28;20040;-45
2024/01/06 04:13:43;;;;;;;4.10;1.90;;;;;;;24.48;34.48;98432.88;4981635;28;19909;-46
2024/01/06 04:16:09;;;;;;;4.20;1.90;;;;;;;24.48;34.32;98432.88;4983777;28;20026;-46
2024/01/06 04:18:34;;;;;;;3.80;1.80;;;;;;;24.48;34.37;98434.91;4981922;28;20023;-47
2024/01/06 04:20:59;;;;;;;4.15;1.80;;;;;;;24.44;34.49;98437.19;4980806;28;20076;-46
2024/01/06 04:23:25;;;;;;;4.63;1.75;;;;;;;24.41;34.37;98443.75;4980517;28;20026;-45
2024/01/06 04:25:51;;;;;;;4.10;2.00;;;;;;;24.43;34.49;98446.72;4982466;28;20027;-47
2024/01/06 04:28:16;;;;;;;3.88;1.70;;;;;;;24.45;34.43;98450.47;4980213;28;20037;-44
2024/01/06 04:30:42;;;;;;;3.05;1.60;;;;;;;24.45;34.44;98444.22;4984556;28;20117;-44
2024/01/06 04:33:07;;;;;;;4.10;1.90;;;;;;;24.51;34.35;98439.38;4984349;28;20036;-45
2024/01/06 04:35:32;;;;;;;3.85;1.73;;;;;;;24.52;34.35;98441.63;4984065;28;20022;-45
2024/01/06 04:37:58;;;;;;;3.65;1.70;;;;;;;24.55;34.28;98440.59;4980759;28;20030;-46
2024/01/06 04:40:23;;;;;;;3.60;1.55;;;;;;;24.52;34.47;98435.34;4983273;28;20487;-45
2024/01/06 04:42:49;;;;;;;4.93;2.05;;;;;;;24.51;34.31;98434.59;4978452;28;20034;-48
2024/01/06 04:45:14;;;;;;;3.85;1.88;;;;;;;24.47;34.65;98433.41;4981135;28;20045;-46
2024/01/06 04:47:39;;;;;;;4.38;1.85;;;;;;;24.47;34.63;98428.63;4980948;28;20059;-46
2024/01/06 04:50:05;;;;;;;4.35;1.80;;;;;;;24.53;34.65;98436.84;4982524;28;20014;-45
2024/01/06 04:52:30;;;;;;;5.03;1.80;;;;;;;24.56;34.51;98441.34;4981352;28;20544;-45
2024/01/06 04:54:56;;;;;;;4.22;1.60;;;;;;;24.59;34.40;98435.50;4963586;28;20031;-47
2024/01/06 04:57:21;;;;;;;3.83;1.83;;;;;;;24.61;34.54;98429.47;4980883;28;20391;-45
2024/01/06 04:59:47;;;;;;;4.63;1.80;;;;;;;24.64;34.53;98433.94;4984152;28;20032;-48
2024/01/06 05:02:12;;;;;;;3.28;1.55;;;;;;;24.65;34.49;98435.44;4982467;28;20026;-46
2024/01/06 05:04:37;;;;;;;3.92;1.80;;;;;;;24.66;34.47;98439.69;4982249;28;20041;-45
2024/01/06 05:07:03;;;;;;;3.65;1.60;;;;;;;24.68;34.21;98434.41;4981490;28;20506;-46
2024/01/06 05:09:28;;;;;;;4.57;1.50;;;;;;;24.71;34.21;98445.16;4983846;28;20111;-46
2024/01/06 05:11:53;;;;;;;3.70;1.60;;;;;;;24.69;34.35;98438.66;4982984;28;20033;-44
2024/01/06 05:14:19;;;;;;;3.40;1.60;;;;;;;24.72;34.37;98434.88;4981372;28;20517;-46
2024/01/06 05:16:44;;;;;;;4.25;1.42;;;;;;;24.72;34.45;98437.63;4981508;28;20022;-46
2024/01/06 05:19:09;;;;;;;3.70;1.67;;;;;;;24.72;34.32;98440.38;4980740;28;20026;-45
2024/01/06 05:21:35;;;;;;;3.20;1.60;;;;;;;24.71;34.50;98444.41;4983311;28;20038;-46
2024/01/06 05:24:00;;;;;;;5.35;1.80;;;;;;;24.68;34.60;98445.44;4982545;28;20026;-45
2024/01/06 05:26:26;;;;;;;5.78;1.67;;;;;;;24.69;34.52;98444.19;4981725;28;20124;-46
2024/01/06 05:28:52;;;;;;;4.63;1.60;;;;;;;24.71;34.55;98452.69;4990157;28;20037;-46
2024/01/06 05:31:17;;;;;;;3.78;1.60;;;;;;;24.74;34.36;98451.66;4985021;28;20441;-50
2024/01/06 05:33:42;;;;;;;3.50;1.50;;;;;;;24.73;34.72;98452.91;4988468;28;20030;-46
2024/01/06 05:36:08;;;;;;;3.35;1.45;;;;;;;24.76;34.56;98460.16;4985048;28;20023;-44
2024/01/06 05:38:33;;;;;;;3.22;1.50;;;;;;;24.76;34.49;98462.91;4984478;28;20023;-46
2024/01/06 05:40:58;;;;;;;4.47;1.75;;;;;;;24.80;34.50;98463.34;4983786;28;20024;-45
2024/01/06 05:43:24;;;;;;;3.75;1.60;;;;;;;24.85;34.52;98465.31;4992978;28;20672;-46
2024/01/06 05:45:49;;;;;;;4.68;1.70;;;;;;;24.86;34.45;98466.78;4984524;28;20033;-44
2024/01/06 05:48:15;;;;;;;4.90;1.50;;;;;;;24.86;34.61;98461.28;4986792;28;20038;-46
2024/01/06 05:50:40;;;;;;;4.10;1.63;;;;;;;24.82;34.81;98465.59;4984162;28;20837;-45
2024/01/06 05:53:06;;;;;;;4.85;1.88;;;;;;;24.93;35.00;98471.72;4992227;28;20037;-45
2024/01/06 05:55:31;;;;;;;5.82;1.80;;;;;;;24.85;35.44;98481.09;4988497;28;20445;-43
2024/01/06 05:57:57;;;;;;;7.40;2.08;;;;;;;24.88;35.55;98486.34;5013778;28;20436;-44
2024/01/06 06:00:22;;;;;;;7.43;1.90;;;;;;;24.91;35.70;98482.53;4984877;28;20478;-45
2024/01/06 06:02:48;;;;;;;6.57;2.00;;;;;;;24.92;35.64;98484.03;4981254;28;20092;-44
2024/01/06 06:05:13;;;;;;;5.65;1.90;;;;;;;24.97;35.67;98486.03;4981717;28;20026;-44
2024/01/06 06:07:39;;;;;;;6.20;2.00;;;;;;;24.93;35.73;98493.81;4984271;28;20739;-46
2024/01/06 06:10:10;;;;;;;5.63;1.90;;;;;;;24.93;35.78;98493.81;4988928;28;20719;-52
2024/01/06 06:12:36;;;;;;;9.13;2.08;;;;;;;24.95;35.85;98498.84;4984055;28;20473;-44
2024/01/06 06:15:03;;;;;;;7.88;2.30;;;;;;;24.99;35.80;98497.25;4991538;28;20088;-45
2024/01/06 06:17:30;;;;;;;6.78;2.10;;;;;;;25.02;35.60;98498.25;4984653;28;20026;-50
2024/01/06 06:19:56;;;;;;;7.63;2.45;;;;;;;25.00;35.59;98504.28;4982620;28;20522;-48
2024/01/06 06:22:22;;;;;;;6.78;2.63;;;;;;;25.02;35.72;98509.28;4986943;28;20038;-58
2024/01/06 06:24:47;;;;;;;5.18;2.03;;;;;;;25.02;35.47;98507.28;4982557;28;20034;-48
2024/01/06 06:27:13;;;;;;;5.78;2.00;;;;;;;25.03;35.47;98508.75;4980838;28;20092;-49
2024/01/06 06:29:38;;;;;;;6.88;2.10;;;;;;;25.06;35.39;98513.25;4983774;28;20026;-51
2024/01/06 06:32:03;;;;;;;5.95;1.90;;;;;;;25.04;35.06;98515.78;4984552;28;20033;-48
2024/01/06 06:34:29;;;;;;;5.75;1.70;;;;;;;25.08;35.15;98520.25;4991037;28;20470;-51
2024/01/06 06:36:54;;;;;;;6.25;2.25;;;;;;;25.06;35.17;98516.00;4985437;28;20032;-48
2024/01/06 06:39:19;;;;;;;5.40;1.80;;;;;;;25.03;35.11;98517.03;4985701;28;20033;-56
2024/01/06 06:41:45;;;;;;;4.18;1.70;;;;;;;25.02;34.79;98518.31;4984451;28;20042;-48
2024/01/06 06:44:10;;;;;;;5.90;1.77;;;;;;;24.96;34.63;98525.94;4980803;28;20073;-51
2024/01/06 06:46:36;;;;;;;4.43;1.60;;;;;;;24.94;34.39;98533.22;4984041;28;20061;-53
2024/01/06 06:49:02;;;;;;;6.15;1.90;;;;;;;24.95;34.61;98535.47;4979475;28;20015;-52
2024/01/06 06:51:28;;;;;;;4.40;1.83;;;;;;;24.98;34.55;98537.19;4984934;28;20069;-51
2024/01/06 06:53:54;;;;;;;4.70;1.83;;;;;;;24.98;34.25;98541.97;4983120;28;20029;-52
2024/01/06 06:56:19;;;;;;;5.38;1.95;;;;;;;24.99;34.49;98546.94;4986725;28;20479;-47
2024/01/06 06:58:45;;;;;;;4.28;1.83;;;;;;;24.96;34.44;98548.00;4984801;28;20030;-50
2024/01/06 07:01:13;;;;;;;4.57;1.80;;;;;;;24.97;34.22;98554.28;4987243;28;20034;-48
2024/01/06 07:03:39;;;;;;;4.97;1.73;;;;;;;24.95;34.37;98562.34;4982217;28;20621;-46
2024/01/06 07:06:05;;;;;;;5.50;1.80;;;;;;;24.95;34.35;98568.59;4988561;28;20019;-47
2024/01/06 07:08:30;;;;;;;5.65;1.83;;;;;;;24.93;34.29;98565.59;4982131;28;20389;-48
2024/01/06 07:10:56;;;;;;;5.70;1.98;;;;;;;24.94;34.28;98567.09;4985923;28;20702;-55
2024/01/06 07:13:22;;;;;;;4.15;1.88;;;;;;;24.95;34.34;98560.31;4979674;28;20026;-50
2024/01/06 07:15:47;;;;;;;4.53;1.80;;;;;;;24.96;34.21;98567.34;4989535;28;20429;-50
2024/01/06 07:18:13;;;;;;;4.70;1.73;;;;;;;24.99;34.21;98565.53;4995455;28;20041;-56
2024/01/06 07:20:38;;;;;;;3.95;1.63;;;;;;;24.97;33.96;98568.09;4996243;28;20390;-54
2024/01/06 07:23:04;;;;;;;5.43;2.00;;;;;;;24.98;34.25;98567.53;4987254;28;20029;-53
2024/01/06 07:25:30;;;;;;;5.03;2.15;;;;;;;24.99;34.09;98569.03;4986920;28;20390;-50
2024/01/06 07:27:55;;;;;;;4.18;2.00;;;;;;;24.98;34.17;98575.09;4984313;28;20475;-50
2024/01/06 07:30:21;;;;;;;6.45;2.03;;;;;;;24.98;34.05;98573.06;4982014;28;20073;-51
2024/01/06 07:32:47;;;;;;;5.15;2.15;;;;;;;24.98;34.14;98577.88;4990875;28;20037;-52
2024/01/06 07:35:13;;;;;;;5.13;2.00;;;;;;;24.96;33.99;98575.63;4993911;28;20022;-47
2024/01/06 07:37:39;;;;;;;5.10;2.40;;;;;;;24.93;33.90;98579.38;4980890;28;20025;-50
2024/01/06 07:40:05;;;;;;;4.57;2.08;;;;;;;24.96;33.92;98586.66;4987543;28;20022;-56
2024/01/06 07:42:31;;;;;;;5.22;2.28;;;;;;;24.97;33.84;98587.41;5018630;28;20026;-60
2024/01/06 07:44:57;;;;;;;5.07;2.30;;;;;;;24.96;33.89;98586.66;5003589;28;20030;-56
2024/01/06 07:47:22;;;;;;;5.43;2.40;;;;;;;24.99;33.82;98596.66;5001389;28;20029;-48
2024/01/06 07:49:48;;;;;;;5.30;2.33;;;;;;;24.99;33.84;98596.66;4986226;28;20409;-47
2024/01/06 07:52:13;;;;;;;6.63;2.63;;;;;;;25.00;33.67;98598.13;4984523;28;20037;-47
2024/01/06 07:54:39;;;;;;;5.88;2.55;;;;;;;25.03;33.80;98602.63;4983007;28;20057;-50
2024/01/06 07:57:04;;;;;;;7.47;2.70;;;;;;;25.04;33.73;98601.38;4982185;28;20351;-45
2024/01/06 07:59:30;;;;;;;6.25;2.67;;;;;;;24.99;34.07;98610.44;4981893;28;20030;-53
2024/01/06 08:01:55;;;;;;;5.47;2.60;;;;;;;25.03;33.69;98610.91;4982634;28;20022;-53
2024/01/06 08:04:21;;;;;;;6.10;2.40;;;;;;;24.99;33.56;98607.69;4984736;28;20041;-55
2024/01/06 08:06:46;;;;;;;5.53;2.25;;;;;;;25.00;33.63;98611.19;4982066;28;20994;-51
2024/01/06 08:09:12;;;;;;;5.38;2.58;;;;;;;25.02;33.78;98611.44;4983439;28;20026;-51
2024/01/06 08:11:37;;;;;;;4.50;2.22;;;;;;;24.99;33.53;98607.69;4986736;28;20025;-49
2024/01/06 08:14:03;;;;;;;5.57;2.30;;;;;;;25.00;33.87;98603.66;4985923;28;20022;-50
2024/01/06 08:16:28;;;;;;;6.28;2.50;;;;;;;25.04;33.48;98609.66;4987516;28;20381;-52
2024/01/06 08:18:53;;;;;;;6.15;2.33;;;;;;;25.03;33.75;98616.44;4982049;28;20030;-51
2024/01/06 08:21:19;;;;;;;4.90;2.22;;;;;;;25.03;33.82;98616.44;4979830;28;20513;-54
2024/01/06 08:23:44;;;;;;;5.20;2.30;;;;;;;25.04;33.73;98617.19;4980099;28;20104;-51
2024/01/06 08:26:10;;;;;;;5.90;2.47;;;;;;;24.96;33.97;98617.03;4979254;28;20038;-45
2024/01/06 08:28:35;;;;;;;6.05;2.63;;;;;;;25.02;33.78;98623.22;4977407;28;20030;-50
2024/01/06 08:31:01;;;;;;;5.32;2.30;;;;;;;25.07;33.54;98621.66;4979432;28;20071;-54
2024/01/06 08:33:26;;;;;;;5.78;2.40;;;;;;;25.08;33.61;98620.41;4977421;28;20034;-54
2024/01/06 08:35:51;;;;;;;4.85;2.42;;;;;;;25.08;33.54;98628.69;4986890;28;20034;-51
2024/01/06 08:38:17;;;;;;;5.03;2.45;;;;;;;25.09;33.71;98627.44;4992920;28;20612;-50
2024/01/06 08:40:44;;;;;;;5.18;2.00;;;;;;;25.02;34.00;98628.00;4984221;28;20022;-56
2024/01/06 08:43:09;;;;;;;5.37;2.40;;;;;;;25.09;33.78;98626.69;4980378;28;20027;-53
2024/01/06 08:45:35;;;;;;;6.22;2.30;;;;;;;25.18;33.77;98623.56;4985786;28;20261;-50
2024/01/06 08:48:00;;;;;;;6.57;2.17;;;;;;;25.15;33.69;98628.13;4979941;28;20030;-49
2024/01/06 08:50:25;;;;;;;5.50;2.38;;;;;;;25.17;33.59;98617.31;4984629;28;20030;-49
2024/01/06 08:52:51;;;;;;;4.47;2.10;;;;;;;25.13;33.53;98632.66;4980191;28;20393;-49
2024/01/06 08:55:16;;;;;;;6.68;2.20;;;;;;;25.00;33.64;98627.75;4986232;28;20042;-50
2024/01/06 08:57:41;;;;;;;5.65;2.00;;;;;;;25.00;33.67;98630.53;4978948;28;20076;-49
2024/01/06 09:00:09;;;;;;;6.38;2.50;;;;;;;24.94;33.39;98633.34;4979940;28;20034;-49
2024/01/06 09:02:34;;;;;;;4.78;2.30;;;;;;;24.92;33.48;98624.81;4982145;28;20434;-50
2024/01/06 09:04:59;;;;;;;6.03;2.10;;;;;;;24.91;33.13;98634.34;4979910;28;20034;-51
2024/01/06 09:07:25;;;;;;;5.95;2.22;;;;;;;24.92;32.88;98635.09;4988607;28;20028;-50
2024/01/06 09:09:51;;;;;;;5.82;2.03;;;;;;;24.91;33.02;98648.16;4982675;28;20026;-55
2024/01/06 09:12:16;;;;;;;5.30;1.98;;;;;;;24.81;33.33;98641.47;4979733;28;20034;-51
2024/01/06 09:14:42;;;;;;;6.00;2.40;;;;;;;24.90;33.57;98643.91;4979138;28;20048;-50
2024/01/06 09:17:07;;;;;;;4.95;2.00;;;;;;;24.89;33.45;98642.41;4985284;28;20030;-46
2024/01/06 09:19:33;;;;;;;6.78;1.90;;;;;;;24.92;33.33;98649.66;4984420;28;20037;-44
2024/01/06 09:21:59;;;;;;;7.80;2.13;;;;;;;24.90;33.70;98654.94;4984656;28;20105;-45
2024/01/06 09:24:24;;;;;;;3.90;1.73;;;;;;;24.91;33.61;98661.97;4980091;28;20034;-45
2024/01/06 09:26:51;;;;;;;4.65;1.90;;;;;;;24.94;33.49;98666.47;4981589;28;20023;-48
2024/01/06 09:29:16;;;;;;;4.00;1.80;;;;;;;24.96;33.36;98669.47;4980092;28;20026;-49
2024/01/06 09:31:43;;;;;;;4.70;1.80;;;;;;;24.94;33.47;98658.19;4982719;28;20037;-54
2024/01/06 09:34:09;;;;;;;4.72;1.80;;;;;;;24.97;33.30;98661.94;4978483;28;20018;-55
2024/01/06 09:36:35;;;;;;;5.90;2.03;;;;;;;24.99;33.03;98668.41;4982987;28;20021;-47
2024/01/06 09:39:00;;;;;;;4.88;1.90;;;;;;;25.04;33.26;98659.34;4981577;28;20099;-50
2024/01/06 09:41:25;;;;;;;5.53;1.75;;;;;;;25.05;32.99;98655.31;4981085;28;20101;-46
2024/01/06 09:43:51;;;;;;;4.90;1.77;;;;;;;25.05;32.91;98655.31;5012266;28;20029;-48
2024/01/06 09:46:27;;;;;;;4.05;1.77;;;;;;;25.06;33.04;98656.81;4983748;28;20479;-54
2024/01/06 09:48:53;;;;;;;4.65;1.70;;;;;;;25.03;32.87;98662.63;4287505;28;10000951;-56
2024/01/06 09:51:19;;;;;;;5.55;1.90;;;;;;;24.99;32.51;98657.38;4974703;28;20729;-57
2024/01/06 09:54:07;;;;;;;4.03;1.80;;;;;;;24.94;32.82;98666.47;4977543;28;20030;-54
2024/01/06 09:56:32;;;;;;;4.25;1.80;;;;;;;24.94;32.70;98658.19;4975582;28;20054;-56
2024/01/06 09:58:58;;;;;;;4.63;1.80;;;;;;;24.95;32.60;98661.72;4992074;28;20568;-56
2024/01/06 10:01:23;;;;;;;4.70;1.80;;;;;;;24.97;32.52;98653.66;5012326;28;20034;-55
2024/01/06 10:03:49;;;;;;;6.03;2.17;;;;;;;24.94;32.71;98660.97;4977466;28;20023;-54
2024/01/06 10:06:15;;;;;;;4.80;2.03;;;;;;;24.94;32.58;98660.97;4975520;28;20517;-55
2024/01/06 10:08:43;;;;;;;5.03;2.00;;;;;;;24.93;32.80;98664.97;4978435;28;20023;-53
2024/01/06 10:11:09;;;;;;;4.88;1.80;;;;;;;24.93;32.71;98670.47;4980332;28;20026;-47
2024/01/06 10:13:34;;;;;;;5.57;2.08;;;;;;;24.96;32.54;98669.47;4985020;28;20014;-46
2024/01/06 10:16:00;;;;;;;7.15;2.20;;;;;;;24.91;32.43;98672.25;4981386;28;20114;-44
2024/01/06 10:18:27;;;;;;;5.93;2.33;;;;;;;24.81;32.31;98663.53;4984844;28;20019;-47
2024/01/06 10:20:53;;;;;;;5.95;2.00;;;;;;;24.83;32.32;98672.06;4997044;28;20022;-48
2024/01/06 10:23:18;;;;;;;5.25;2.30;;;;;;;24.83;32.50;98672.06;4981750;28;20022;-52
2024/01/06 10:25:44;;;;;;;5.90;2.08;;;;;;;24.89;32.19;98666.50;4984456;28;20449;-54
2024/01/06 10:28:13;;;;;;;4.63;1.83;;;;;;;24.91;32.66;98666.72;4984004;28;20019;-52
2024/01/06 10:30:38;;;;;;;5.05;1.90;;;;;;;24.90;32.54;98671.50;5016835;28;20018;-46
2024/01/06 10:33:09;;;;;;;5.18;2.10;;;;;;;24.93;32.57;98662.19;4983188;28;20596;-43
2024/01/06 10:35:36;;;;;;;7.45;2.17;;;;;;;24.96;32.67;98663.97;4985730;28;20033;-53
2024/01/06 10:38:01;;;;;;;3.97;1.83;;;;;;;24.90;32.41;98665.25;4981600;28;20022;-51
2024/01/06 10:40:27;;;;;;;4.28;1.90;;;;;;;24.93;32.60;98670.47;4985400;28;20043;-46
2024/01/06 10:42:52;;;;;;;6.00;2.47;;;;;;;24.95;32.38;98673.50;4982679;28;20027;-47
2024/01/06 10:45:17;;;;;;;6.55;2.53;;;;;;;24.92;32.40;98662.72;4985597;28;20433;-53
2024/01/06 10:47:43;;;;;;;4.32;2.15;;;;;;;24.93;32.43;98664.97;4982985;28;20080;-49
2024/01/06 10:50:09;;;;;;;6.97;2.35;;;;;;;24.95;32.57;98662.47;4985200;28;20022;-46
2024/01/06 10:52:35;;;;;;;5.65;2.20;;;;;;;24.89;32.53;98670.00;4981879;28;20030;-53
2024/01/06 10:55:00;;;;;;;5.70;2.20;;;;;;;24.93;32.77;98670.47;4986957;28;20033;-58
2024/01/06 10:57:27;;;;;;;5.07;2.50;;;;;;;24.91;32.40;98670.25;4990606;28;20490;-59
2024/01/06 10:59:53;;;;;;;5.45;2.50;;;;;;;24.94;32.34;98676.75;5013844;28;20057;-59
2024/01/06 11:02:19;;;;;;;4.40;2.22;;;;;;;24.94;32.39;98672.00;4983183;28;20470;-59
2024/01/06 11:04:47;;;;;;;5.18;2.30;;;;;;;24.96;32.47;98672.25;4985358;28;20030;-58
2024/01/06 11:07:20;;;;;;;5.72;2.13;;;;;;;24.96;32.51;98669.47;4983488;28;20018;-59
2024/01/06 11:10:09;;;;;;;4.85;2.40;;;;;;;25.00;32.46;98669.91;4983214;28;20097;-59
2024/01/06 11:12:34;;;;;;;4.90;2.38;;;;;;;25.01;32.76;98665.91;4981978;28;20034;-59
2024/01/06 11:15:00;;;;;;;4.72;2.17;;;;;;;24.99;32.65;98667.66;5014384;28;20445;-58
2024/01/06 11:17:58;;;;;;;5.45;2.10;;;;;;;25.00;32.57;98669.91;4983272;28;20025;-58
2024/01/06 11:20:30;;;;;;;4.50;2.15;;;;;;;24.98;32.59;98666.91;4996788;28;20038;-56
2024/01/06 11:22:56;;;;;;;4.50;2.20;;;;;;;24.99;32.62;98673.94;4983832;28;20057;-56
2024/01/06 11:25:21;;;;;;;4.70;2.15;;;;;;;24.96;32.73;98666.72;5000495;28;20446;-58
2024/01/06 11:27:48;;;;;;;5.60;2.08;;;;;;;24.92;32.77;98663.47;4985229;28;20030;-57